Time;durP1;ratioP1;P1;durP2;ratioP2;P2;SDS_P1;SDS_P2;PMS_P1;PMS_P2;Temp;Humidity;BMP_temperature;BMP_pressure;BME280_temperature;BME280_humidity;BME280_pressure;Samples;Min_cycle;Max_cycle;Signal;HPM_P1;HPM_P2
2023/11/30 00:01:58;;;;;;;51.13;17.53;;;-5.80;99.90;;;;;;4428838;28;659720;-72
2023/11/30 00:04:46;;;;;;;53.10;15.33;;;-5.70;99.90;;;;;;4457918;28;659779;-72
2023/11/30 00:07:33;;;;;;;68.53;22.80;;;-5.60;99.90;;;;;;4432990;28;660166;-72
2023/11/30 00:10:20;;;;;;;73.60;24.00;;;-5.50;99.90;;;;;;4461135;27;659776;-72
2023/11/30 00:13:07;;;;;;;65.57;19.40;;;-5.30;99.90;;;;;;4423332;28;659948;-72
2023/11/30 00:15:56;;;;;;;62.10;20.13;;;-5.20;99.90;;;;;;4452170;28;661016;-72
2023/11/30 00:18:43;;;;;;;58.83;17.67;;;-5.20;99.90;;;;;;4418693;28;659737;-72
2023/11/30 00:21:30;;;;;;;45.17;16.60;;;-5.00;99.90;;;;;;4451210;28;659845;-72
2023/11/30 00:24:17;;;;;;;45.10;15.53;;;-5.00;99.90;;;;;;4429305;27;659826;-72
2023/11/30 00:27:05;;;;;;;43.83;16.33;;;-4.90;99.90;;;;;;4453844;28;659736;-72
2023/11/30 00:29:52;;;;;;;65.90;20.90;;;-4.80;99.90;;;;;;4435034;28;659824;-72
2023/11/30 00:32:41;;;;;;;90.97;30.80;;;-4.70;99.90;;;;;;4446684;28;661240;-72
2023/11/30 00:35:28;;;;;;;49.60;18.73;;;-4.60;99.90;;;;;;4429467;28;659768;-72
2023/11/30 00:38:15;;;;;;;88.27;27.97;;;-4.60;99.90;;;;;;4453746;27;660767;-72
2023/11/30 00:41:03;;;;;;;64.57;18.60;;;-4.60;99.90;;;;;;4439136;27;659509;-72
2023/11/30 00:43:50;;;;;;;59.73;21.23;;;-4.50;99.90;;;;;;4454334;28;661091;-72
2023/11/30 00:46:37;;;;;;;54.13;19.80;;;-4.50;99.90;;;;;;4447632;27;659759;-72
2023/11/30 00:49:26;;;;;;;123.80;36.37;;;-4.40;99.90;;;;;;4459464;28;660244;-72
2023/11/30 00:52:13;;;;;;;52.93;19.83;;;-4.30;99.90;;;;;;4426154;28;660424;-72
2023/11/30 00:55:00;;;;;;;51.80;19.63;;;-4.40;99.90;;;;;;4449888;28;660057;-72
2023/11/30 00:57:48;;;;;;;53.83;19.48;;;-4.40;99.90;;;;;;4430800;28;660076;-71
2023/11/30 01:00:35;;;;;;;46.30;15.07;;;-4.30;99.90;;;;;;4459603;27;660715;-72
2023/11/30 01:03:22;;;;;;;65.53;19.50;;;-4.20;99.90;;;;;;4458935;28;660785;-72
2023/11/30 01:06:11;;;;;;;46.80;16.33;;;-4.20;99.90;;;;;;4455867;27;660379;-72
2023/11/30 01:08:58;;;;;;;50.27;17.73;;;-4.10;99.90;;;;;;4451611;27;659635;-72
2023/11/30 01:11:45;;;;;;;52.90;17.57;;;-4.00;99.90;;;;;;4455569;27;660347;-72
2023/11/30 01:14:33;;;;;;;45.40;17.17;;;-3.90;99.90;;;;;;4433210;28;659996;-72
2023/11/30 01:17:20;;;;;;;46.63;16.50;;;-3.90;99.90;;;;;;4449707;28;660999;-72
2023/11/30 01:20:10;;;;;;;51.70;17.83;;;-3.90;99.90;;;;;;4449055;28;660072;-72
2023/11/30 01:22:59;;;;;;;56.03;19.57;;;-3.90;99.90;;;;;;4429818;28;659580;-72
2023/11/30 01:25:46;;;;;;;64.47;20.70;;;-3.90;99.90;;;;;;4456716;28;659620;-72
2023/11/30 01:28:33;;;;;;;283.67;59.97;;;-3.90;99.90;;;;;;4431791;28;659661;-72
2023/11/30 01:31:20;;;;;;;76.37;25.10;;;-3.90;99.90;;;;;;4452848;28;662146;-72
2023/11/30 01:34:08;;;;;;;190.20;44.63;;;-3.90;99.90;;;;;;4439453;28;659755;-72
2023/11/30 01:36:55;;;;;;;192.87;47.57;;;-4.00;99.90;;;;;;4453605;28;661043;-72
2023/11/30 01:39:44;;;;;;;178.37;41.97;;;-4.10;99.90;;;;;;4441787;28;660857;-72
2023/11/30 01:42:31;;;;;;;430.07;79.60;;;-4.10;99.90;;;;;;4449946;28;660951;-72
2023/11/30 01:45:18;;;;;;;203.20;43.13;;;-4.10;99.90;;;;;;4437495;28;661188;-72
2023/11/30 01:48:06;;;;;;;254.20;49.53;;;-4.20;99.90;;;;;;4452636;28;661470;-72
2023/11/30 01:50:53;;;;;;;350.97;67.10;;;-4.30;99.90;;;;;;4426578;28;660739;-72
2023/11/30 01:53:40;;;;;;;379.40;74.70;;;-4.30;99.90;;;;;;4456414;27;660963;-72
2023/11/30 01:56:29;;;;;;;332.03;67.07;;;-4.40;99.90;;;;;;4436509;27;660706;-72
2023/11/30 01:59:16;;;;;;;291.00;61.57;;;-4.40;99.90;;;;;;4454170;27;661037;-73
2023/11/30 02:02:03;;;;;;;279.93;58.37;;;-4.60;99.90;;;;;;4440953;27;660563;-72
2023/11/30 02:04:54;;;;;;;314.87;63.40;;;-4.80;99.90;;;;;;4465495;28;661131;-72
2023/11/30 02:07:41;;;;;;;287.60;58.53;;;-4.80;99.90;;;;;;4430657;27;660882;-72
2023/11/30 02:10:28;;;;;;;199.27;44.30;;;-4.80;99.90;;;;;;4431453;28;660578;-72
2023/11/30 02:13:17;;;;;;;92.30;24.50;;;-4.80;99.90;;;;;;4465686;27;661488;-72
2023/11/30 02:16:05;;;;;;;66.30;20.93;;;-4.90;99.90;;;;;;4432328;28;661044;-72
2023/11/30 02:18:52;;;;;;;56.57;18.17;;;-4.90;99.90;;;;;;4463626;27;659705;-72
2023/11/30 02:21:39;;;;;;;61.23;18.27;;;-4.90;99.90;;;;;;4427793;28;661128;-72
2023/11/30 02:24:28;;;;;;;44.37;15.70;;;-4.90;99.90;;;;;;4456212;28;659807;-72
2023/11/30 02:27:15;;;;;;;48.47;16.47;;;-4.80;99.90;;;;;;4434843;27;659921;-72
2023/11/30 02:30:02;;;;;;;60.20;18.10;;;-4.80;99.90;;;;;;4448340;28;659693;-72
2023/11/30 02:32:50;;;;;;;41.73;14.67;;;-4.90;99.90;;;;;;4461322;27;660591;-72
2023/11/30 02:35:37;;;;;;;41.83;14.03;;;-5.00;99.90;;;;;;4437230;28;659098;-72
2023/11/30 02:38:24;;;;;;;25.13;10.17;;;-4.90;99.90;;;;;;4426599;27;660169;-72
2023/11/30 02:41:12;;;;;;;41.93;14.00;;;-4.90;99.90;;;;;;4455901;27;659662;-72
2023/11/30 02:44:00;;;;;;;45.23;16.17;;;-4.90;99.90;;;;;;4425713;27;660304;-72
2023/11/30 02:46:47;;;;;;;48.47;16.67;;;-4.90;99.90;;;;;;4440006;28;660332;-71
2023/11/30 02:49:35;;;;;;;39.20;13.97;;;-4.90;99.90;;;;;;4458293;27;660680;-72
2023/11/30 02:52:22;;;;;;;53.80;17.70;;;-4.90;99.90;;;;;;4460630;27;659570;-71
2023/11/30 02:55:10;;;;;;;43.63;14.67;;;-5.00;99.90;;;;;;4458354;28;659793;-72
2023/11/30 02:57:58;;;;;;;36.43;14.77;;;-5.00;99.90;;;;;;4455863;28;659031;-72
2023/11/30 03:00:46;;;;;;;35.43;13.60;;;-4.90;99.90;;;;;;4429533;27;660898;-72
2023/11/30 03:03:33;;;;;;;41.63;16.23;;;-4.80;99.90;;;;;;4436316;27;660249;-72
2023/11/30 03:06:20;;;;;;;53.53;18.93;;;-4.80;99.90;;;;;;4446355;28;661461;-72
2023/11/30 03:09:08;;;;;;;47.13;16.93;;;-4.80;99.90;;;;;;4431809;27;659254;-72
2023/11/30 03:11:55;;;;;;;32.87;13.03;;;-4.70;99.90;;;;;;4461411;27;659808;-72
2023/11/30 03:14:46;;;;;;;75.67;23.87;;;-4.60;99.90;;;;;;4444139;27;659729;-72
2023/11/30 03:17:33;;;;;;;65.00;21.00;;;-4.60;99.90;;;;;;4442567;27;659859;-72
2023/11/30 03:20:21;;;;;;;135.43;37.67;;;-4.50;99.90;;;;;;4459829;27;659790;-72
2023/11/30 03:23:08;;;;;;;110.80;31.93;;;-4.40;99.90;;;;;;4431249;27;661378;-72
2023/11/30 03:25:55;;;;;;;82.80;26.33;;;-4.30;99.90;;;;;;4446243;27;661979;-72
2023/11/30 03:28:42;;;;;;;92.67;26.80;;;-4.40;99.90;;;;;;4442664;27;660260;-71
2023/11/30 03:31:31;;;;;;;91.13;27.93;;;-4.30;99.90;;;;;;4468863;27;660768;-72
2023/11/30 03:34:18;;;;;;;69.93;23.27;;;-4.20;99.90;;;;;;4425592;28;659533;-72
2023/11/30 03:37:05;;;;;;;63.27;20.97;;;-4.10;99.90;;;;;;4448751;28;659928;-72
2023/11/30 03:39:53;;;;;;;51.00;18.57;;;-4.00;99.90;;;;;;4427751;28;659989;-72
2023/11/30 03:42:40;;;;;;;46.43;17.50;;;-4.00;99.90;;;;;;4452217;28;660567;-72
2023/11/30 03:45:27;;;;;;;49.23;17.53;;;-3.90;99.90;;;;;;4446940;28;660001;-72
2023/11/30 03:48:16;;;;;;;57.83;18.10;;;-3.90;99.90;;;;;;4455979;28;660373;-72
2023/11/30 03:51:03;;;;;;;35.55;14.25;;;-3.80;99.90;;;;;;4427281;28;660589;-72
2023/11/30 03:53:51;;;;;;;46.17;15.17;;;-3.90;99.90;;;;;;4455689;28;659989;-72
2023/11/30 03:56:38;;;;;;;48.47;18.00;;;-3.60;99.90;;;;;;4427526;28;660255;-72
2023/11/30 03:59:25;;;;;;;37.93;14.20;;;-3.60;99.90;;;;;;4447736;28;659889;-72
2023/11/30 04:02:12;;;;;;;41.50;15.20;;;-3.50;99.90;;;;;;4443394;27;659766;-72
2023/11/30 04:05:03;;;;;;;39.37;14.13;;;-3.60;99.90;;;;;;4451525;28;660249;-72
2023/11/30 04:07:50;;;;;;;52.53;17.58;;;-3.60;99.90;;;;;;4415259;28;660555;-72
2023/11/30 04:10:38;;;;;;;58.80;18.97;;;-3.50;99.90;;;;;;4430882;28;659960;-72
2023/11/30 04:13:25;;;;;;;51.57;18.57;;;-3.50;99.90;;;;;;4450671;28;660921;-72
2023/11/30 04:16:14;;;;;;;45.97;16.55;;;-3.40;99.90;;;;;;4441961;27;660167;-72
2023/11/30 04:19:02;;;;;;;36.73;13.27;;;-3.40;99.90;;;;;;4453702;28;660322;-72
2023/11/30 04:21:50;;;;;;;47.20;16.23;;;-3.30;99.90;;;;;;4442293;27;659932;-72
2023/11/30 04:24:37;;;;;;;42.23;15.13;;;-3.30;99.90;;;;;;4436861;27;659785;-72
2023/11/30 04:27:25;;;;;;;45.67;16.63;;;-3.30;99.90;;;;;;4446517;28;661663;-71
2023/11/30 04:30:13;;;;;;;49.83;17.93;;;-3.30;99.90;;;;;;4446207;28;660202;-72
2023/11/30 04:33:00;;;;;;;44.97;17.07;;;-3.30;99.90;;;;;;4457639;28;660144;-72
2023/11/30 04:35:47;;;;;;;45.03;16.57;;;-3.30;99.90;;;;;;4438158;27;659789;-72
2023/11/30 04:38:36;;;;;;;42.70;14.67;;;-3.30;99.90;;;;;;4451461;28;660453;-72
2023/11/30 04:41:23;;;;;;;48.13;17.40;;;-3.20;99.90;;;;;;4438700;28;659791;-73
2023/11/30 04:44:10;;;;;;;78.97;24.40;;;-3.20;99.90;;;;;;4455410;27;660197;-72
2023/11/30 04:46:57;;;;;;;104.45;30.13;;;-3.10;99.90;;;;;;4422956;28;659728;-72
2023/11/30 04:49:45;;;;;;;91.60;27.50;;;-3.10;99.90;;;;;;4447967;28;662519;-72
2023/11/30 04:52:32;;;;;;;103.93;29.60;;;-3.10;99.90;;;;;;4455282;28;659156;-72
2023/11/30 04:55:21;;;;;;;90.07;24.47;;;-3.00;99.90;;;;;;4442360;27;660696;-73
2023/11/30 04:58:08;;;;;;;82.83;23.33;;;-3.00;99.90;;;;;;4445946;27;659965;-72
2023/11/30 05:00:55;;;;;;;45.53;17.27;;;-2.90;99.90;;;;;;4463830;27;659936;-72
2023/11/30 05:03:42;;;;;;;40.72;15.80;;;-2.90;99.90;;;;;;4448761;27;660174;-72
2023/11/30 05:06:30;;;;;;;51.33;16.10;;;-2.90;99.90;;;;;;4459989;27;660485;-72
2023/11/30 05:09:17;;;;;;;33.03;12.33;;;-2.80;99.90;;;;;;4462658;28;659486;-72
2023/11/30 05:12:06;;;;;;;37.17;13.63;;;-2.80;99.90;;;;;;4422609;28;660294;-72
2023/11/30 05:14:53;;;;;;;42.07;15.27;;;-2.60;99.90;;;;;;4435745;28;660236;-72
2023/11/30 05:17:41;;;;;;;52.47;17.93;;;-2.60;99.90;;;;;;4469591;27;659985;-72
2023/11/30 05:20:28;;;;;;;83.83;23.97;;;-2.70;99.90;;;;;;4436929;27;659971;-72
2023/11/30 05:23:15;;;;;;;74.93;25.03;;;-2.70;99.90;;;;;;4466875;28;659529;-73
2023/11/30 05:26:02;;;;;;;68.67;21.83;;;-2.70;99.90;;;;;;4453978;27;660147;-72
2023/11/30 05:28:52;;;;;;;71.73;23.73;;;-2.80;99.90;;;;;;4453734;27;661139;-72
2023/11/30 05:31:39;;;;;;;62.50;21.23;;;-2.80;99.90;;;;;;4443438;27;660111;-73
2023/11/30 05:34:26;;;;;;;61.37;22.63;;;-2.70;99.90;;;;;;4458738;28;659698;-72
2023/11/30 05:37:13;;;;;;;77.30;24.10;;;-2.70;99.90;;;;;;4436038;28;659778;-72
2023/11/30 05:40:00;;;;;;;58.10;19.87;;;-2.70;99.90;;;;;;4462075;28;660043;-73
2023/11/30 05:42:48;;;;;;;66.57;21.90;;;-2.70;99.90;;;;;;4432836;28;659604;-72
2023/11/30 05:45:37;;;;;;;76.57;23.70;;;-2.80;99.90;;;;;;4466673;28;659875;-72
2023/11/30 05:48:24;;;;;;;61.57;20.47;;;-2.90;99.90;;;;;;4431211;28;660556;-72
2023/11/30 05:51:11;;;;;;;38.85;14.25;;;-3.00;99.90;;;;;;4450078;28;659705;-72
2023/11/30 05:53:59;;;;;;;31.70;12.87;;;-2.90;99.90;;;;;;4442558;27;659995;-72
2023/11/30 05:56:46;;;;;;;28.33;12.30;;;-2.90;99.90;;;;;;4460003;27;659750;-72
2023/11/30 05:59:33;;;;;;;33.57;14.43;;;-2.80;99.90;;;;;;4445209;27;659358;-73
2023/11/30 06:02:22;;;;;;;38.83;14.57;;;-2.90;99.90;;;;;;4456112;27;660352;-72
2023/11/30 06:05:10;;;;;;;25.38;11.18;;;-3.10;99.90;;;;;;4440441;27;660629;-72
2023/11/30 06:07:57;;;;;;;28.17;11.97;;;-3.30;99.90;;;;;;4450594;27;659752;-72
2023/11/30 06:10:44;;;;;;;27.63;11.67;;;-3.30;99.90;;;;;;4439175;28;660082;-72
2023/11/30 06:13:31;;;;;;;28.93;11.93;;;-3.40;99.90;;;;;;4460573;27;659586;-72
2023/11/30 06:16:18;;;;;;;20.47;9.63;;;-3.40;99.90;;;;;;4428327;28;659501;-72
2023/11/30 06:19:07;;;;;;;23.10;10.90;;;-3.50;99.90;;;;;;4472097;27;658430;-72
2023/11/30 06:21:54;;;;;;;30.83;11.40;;;-3.30;99.90;;;;;;4443093;27;660682;-72
2023/11/30 06:24:41;;;;;;;25.63;10.57;;;-3.40;99.90;;;;;;4458588;27;659382;-72
2023/11/30 06:27:28;;;;;;;23.47;10.70;;;-3.30;99.90;;;;;;4429674;27;659597;-72
2023/11/30 06:30:16;;;;;;;21.50;8.63;;;-3.40;99.90;;;;;;4451081;27;660766;-73
2023/11/30 06:33:03;;;;;;;19.50;9.70;;;-3.30;99.90;;;;;;4443451;27;658641;-72
2023/11/30 06:35:51;;;;;;;25.80;10.37;;;-3.40;99.90;;;;;;4465327;27;659735;-72
2023/11/30 06:38:39;;;;;;;22.60;10.53;;;-3.40;99.90;;;;;;4423793;28;659848;-73
2023/11/30 06:41:26;;;;;;;26.40;10.83;;;-3.40;99.90;;;;;;4453562;27;660594;-73
2023/11/30 06:44:13;;;;;;;34.43;11.80;;;-3.40;99.90;;;;;;4429171;27;659756;-72
2023/11/30 06:47:00;;;;;;;24.27;10.30;;;-3.40;99.90;;;;;;4453110;28;659561;-72
2023/11/30 06:49:48;;;;;;;61.55;23.17;;;-3.40;99.90;;;;;;4427547;28;659507;-73
2023/11/30 06:52:36;;;;;;;146.83;50.13;;;-3.20;99.90;;;;;;4455965;28;659948;-73
2023/11/30 06:55:23;;;;;;;101.50;35.97;;;-3.20;99.90;;;;;;4424681;28;660361;-72
2023/11/30 06:58:11;;;;;;;92.67;32.80;;;-3.10;99.90;;;;;;4453117;27;660875;-72
2023/11/30 07:00:58;;;;;;;448.63;114.47;;;-3.00;99.90;;;;;;4425022;27;660096;-72
2023/11/30 07:03:45;;;;;;;234.90;78.87;;;-2.90;99.90;;;;;;4447620;28;662407;-72
2023/11/30 07:06:32;;;;;;;165.87;61.07;;;-2.70;99.90;;;;;;4430396;27;660923;-72
2023/11/30 07:09:21;;;;;;;63.97;26.23;;;-2.50;99.90;;;;;;4459806;27;661807;-73
2023/11/30 07:12:10;;;;;;;54.27;20.37;;;-2.40;99.90;;;;;;4426874;28;660394;-72
2023/11/30 07:14:57;;;;;;;70.55;27.35;;;-2.20;99.90;;;;;;4428071;27;660218;-72
2023/11/30 07:17:45;;;;;;;76.13;29.13;;;-2.10;99.90;;;;;;4445680;27;660388;-72
2023/11/30 07:20:32;;;;;;;90.37;31.17;;;-2.10;99.90;;;;;;4454712;27;659291;-72
2023/11/30 07:23:20;;;;;;;78.80;28.73;;;-2.20;99.90;;;;;;4452196;28;660882;-73
2023/11/30 07:26:12;;;;;;;105.87;35.33;;;-2.10;99.90;;;;;;4451611;27;659180;-72
2023/11/30 07:28:59;;;;;;;155.77;44.50;;;-2.10;99.90;;;;;;4428177;27;660898;-73
2023/11/30 07:31:46;;;;;;;100.13;33.33;;;-2.00;99.90;;;;;;4450918;28;661298;-73
2023/11/30 07:34:33;;;;;;;136.73;38.10;;;-2.00;99.90;;;;;;4431213;28;660357;-73
2023/11/30 07:37:22;;;;;;;89.68;29.95;;;-1.80;99.90;;;;;;4441700;28;660929;-73
2023/11/30 07:40:10;;;;;;;79.67;26.47;;;-1.70;99.90;;;;;;4435287;27;660196;-73
2023/11/30 07:42:59;;;;;;;85.77;26.33;;;-1.60;99.90;;;;;;4448090;27;659626;-72
2023/11/30 07:45:46;;;;;;;85.73;26.83;;;-1.50;99.90;;;;;;4459955;27;659790;-73
2023/11/30 07:48:33;;;;;;;62.00;24.10;;;-1.50;99.90;;;;;;4438363;27;659756;-72
2023/11/30 07:51:22;;;;;;;93.03;28.13;;;-1.40;99.90;;;;;;4466919;27;660882;-73
2023/11/30 07:54:09;;;;;;;167.57;50.50;;;-1.30;99.90;;;;;;4439582;28;659321;-73
2023/11/30 07:56:56;;;;;;;157.80;46.80;;;-1.30;99.90;;;;;;4458067;28;661342;-73
2023/11/30 07:59:45;;;;;;;158.37;52.27;;;-1.30;99.90;;;;;;4432402;27;660893;-72
2023/11/30 08:02:34;;;;;;;113.07;39.27;;;-1.10;99.90;;;;;;4439804;27;661875;-72
2023/11/30 08:05:22;;;;;;;104.20;36.90;;;-1.00;99.90;;;;;;4454416;27;660820;-73
2023/11/30 08:08:10;;;;;;;57.10;22.67;;;-1.00;99.90;;;;;;4430729;27;661651;-72
2023/11/30 08:10:57;;;;;;;57.87;22.50;;;-0.80;99.90;;;;;;4450074;27;659868;-72
2023/11/30 08:13:45;;;;;;;69.00;26.97;;;-0.50;99.90;;;;;;4463412;27;660526;-73
2023/11/30 08:16:34;;;;;;;44.60;19.20;;;-0.10;99.90;;;;;;4450817;27;659369;-72
2023/11/30 08:19:21;;;;;;;32.17;15.30;;;0.40;99.90;;;;;;4463162;27;659664;-73
2023/11/30 08:22:08;;;;;;;38.43;16.73;;;0.90;99.90;;;;;;4428373;27;658587;-73
2023/11/30 08:24:55;;;;;;;26.27;12.47;;;1.70;99.90;;;;;;4460703;27;659745;-73
2023/11/30 08:27:43;;;;;;;19.10;9.00;;;2.30;99.90;;;;;;4441278;27;659199;-72
2023/11/30 08:30:30;;;;;;;21.67;9.27;;;2.30;99.90;;;;;;4463666;27;657404;-73
2023/11/30 08:33:19;;;;;;;20.37;9.60;;;2.40;99.90;;;;;;4465813;27;657397;-72
2023/11/30 08:36:07;;;;;;;22.60;9.33;;;2.40;99.90;;;;;;4460784;27;657996;-72
2023/11/30 08:38:54;;;;;;;21.53;9.00;;;2.40;99.90;;;;;;4441654;27;658024;-73
2023/11/30 08:41:42;;;;;;;21.23;10.37;;;2.60;99.90;;;;;;4461138;27;659341;-72
2023/11/30 08:44:29;;;;;;;24.40;10.40;;;2.30;99.90;;;;;;4437637;28;659601;-72
2023/11/30 08:47:16;;;;;;;16.87;6.30;;;2.70;99.90;;;;;;4450728;28;658434;-72
2023/11/30 08:50:06;;;;;;;18.47;8.37;;;3.20;99.90;;;;;;4433932;28;658193;-72
2023/11/30 08:52:53;;;;;;;20.67;9.50;;;2.80;99.90;;;;;;4433742;28;657545;-72
2023/11/30 08:55:41;;;;;;;22.02;9.52;;;3.00;99.90;;;;;;4451645;28;657166;-73
2023/11/30 08:58:28;;;;;;;21.50;9.93;;;3.90;99.90;;;;;;4440933;27;658074;-72
2023/11/30 09:01:15;;;;;;;27.13;11.50;;;4.00;99.90;;;;;;4466415;27;658269;-72
2023/11/30 09:04:04;;;;;;;21.50;10.50;;;4.00;99.90;;;;;;4434780;27;658634;-72
2023/11/30 09:06:53;;;;;;;19.45;9.38;;;3.80;99.90;;;;;;4446627;28;658580;-72
2023/11/30 09:09:40;;;;;;;19.33;9.40;;;3.40;99.90;;;;;;4422693;28;658016;-73
2023/11/30 09:12:27;;;;;;;20.33;8.53;;;4.50;99.90;;;;;;4433826;27;657333;-72
2023/11/30 09:15:15;;;;;;;11.33;5.23;;;3.90;99.90;;;;;;4462549;27;657523;-73
2023/11/30 09:18:03;;;;;;;11.73;4.17;;;4.10;99.90;;;;;;4443705;28;657714;-72
2023/11/30 09:20:50;;;;;;;22.60;9.73;;;3.60;99.90;;;;;;4464205;27;658126;-72
2023/11/30 09:23:39;;;;;;;15.90;5.93;;;3.30;99.90;;;;;;4445592;28;657943;-72
2023/11/30 09:26:26;;;;;;;8.40;4.27;;;3.40;99.90;;;;;;4457098;28;657402;-72
2023/11/30 09:29:13;;;;;;;15.50;5.50;;;3.60;99.90;;;;;;4431788;28;656793;-72
2023/11/30 09:32:00;;;;;;;11.93;5.17;;;4.10;99.90;;;;;;4449309;28;658775;-72
2023/11/30 09:34:48;;;;;;;17.47;6.87;;;4.00;99.90;;;;;;4427341;28;657535;-72
2023/11/30 09:37:35;;;;;;;20.90;9.43;;;3.50;99.90;;;;;;4450602;28;658745;-72
2023/11/30 09:40:26;;;;;;;20.23;9.37;;;3.30;99.90;;;;;;4454608;28;657611;-72
2023/11/30 09:43:16;;;;;;;21.00;9.20;;;2.70;99.90;;;;;;4431665;28;657542;-72
2023/11/30 09:46:04;;;;;;;25.27;10.17;;;2.90;99.90;;;;;;4435680;28;657222;-72
2023/11/30 09:48:51;;;;;;;26.67;10.40;;;3.00;99.90;;;;;;4450560;28;658563;-72
2023/11/30 09:51:38;;;;;;;21.67;10.70;;;2.60;99.90;;;;;;4427229;28;658176;-72
2023/11/30 09:54:25;;;;;;;22.45;11.10;;;2.30;99.90;;;;;;4450613;28;659432;-72
2023/11/30 09:57:14;;;;;;;20.00;10.07;;;2.40;99.90;;;;;;4427563;28;658418;-72
2023/11/30 10:00:01;;;;;;;23.60;9.47;;;2.40;99.90;;;;;;4449226;28;658814;-72
2023/11/30 10:02:53;;;;;;;17.57;8.70;;;2.70;99.90;;;;;;4433984;28;658022;-72
2023/11/30 10:05:42;;;;;;;18.73;8.30;;;3.40;99.90;;;;;;4423613;28;658048;-72
2023/11/30 10:08:29;;;;;;;25.63;10.67;;;4.20;99.90;;;;;;4425456;28;658418;-72
2023/11/30 10:11:17;;;;;;;17.03;7.83;;;3.80;99.90;;;;;;4458564;28;658516;-73
2023/11/30 10:14:05;;;;;;;20.23;8.83;;;5.10;97.00;;;;;;4437327;27;658533;-73
2023/11/30 10:16:53;;;;;;;22.60;9.93;;;5.80;96.50;;;;;;4442987;28;657969;-73
2023/11/30 10:19:40;;;;;;;19.77;10.93;;;6.40;84.60;;;;;;4456637;27;657734;-73
2023/11/30 10:22:27;;;;;;;19.63;9.93;;;7.00;69.70;;;;;;4434663;27;658600;-73
2023/11/30 10:25:15;;;;;;;20.97;9.07;;;8.20;68.80;;;;;;4453871;28;658755;-73
2023/11/30 10:28:03;;;;;;;20.53;10.10;;;8.40;65.00;;;;;;4443335;27;658711;-73
2023/11/30 10:30:53;;;;;;;16.93;7.43;;;7.80;67.80;;;;;;4447289;28;659229;-73
2023/11/30 10:33:41;;;;;;;17.45;8.57;;;9.00;59.80;;;;;;4442785;27;657611;-73
2023/11/30 10:36:29;;;;;;;18.53;8.53;;;8.60;59.30;;;;;;4436760;27;658316;-73
2023/11/30 10:39:17;;;;;;;18.50;8.37;;;8.90;60.00;;;;;;4457355;27;657863;-74
2023/11/30 10:42:07;;;;;;;19.17;8.13;;;9.30;58.50;;;;;;4436914;27;657664;-73
2023/11/30 10:44:54;;;;;;;17.50;9.03;;;8.80;58.20;;;;;;4445906;27;657768;-73
2023/11/30 10:47:43;;;;;;;14.50;7.00;;;8.40;59.10;;;;;;4453746;27;657207;-74
2023/11/30 10:50:32;;;;;;;15.43;7.40;;;8.70;58.40;;;;;;4433955;27;658024;-74
2023/11/30 10:53:24;;;;;;;13.93;6.93;;;8.10;59.50;;;;;;4443024;27;658145;-74
2023/11/30 10:56:11;;;;;;;15.03;7.37;;;8.90;57.50;;;;;;4424635;27;657506;-71
2023/11/30 10:58:59;;;;;;;14.43;7.17;;;9.00;55.70;;;;;;4446455;27;658154;-71
2023/11/30 11:01:48;;;;;;;11.73;7.13;;;8.70;57.30;;;;;;4459538;27;657838;-72
2023/11/30 11:04:40;;;;;;;15.33;6.90;;;8.60;55.70;;;;;;4430074;27;658057;-71
2023/11/30 11:07:27;;;;;;;12.17;7.03;;;7.30;55.70;;;;;;4456350;27;657520;-71
2023/11/30 11:10:22;;;;;;;9.80;5.30;;;8.70;57.30;;;;;;4415772;27;659061;-71
2023/11/30 11:13:09;;;;;;;13.63;6.63;;;8.20;55.80;;;;;;4431622;27;656357;-73
2023/11/30 11:15:59;;;;;;;9.73;4.70;;;7.40;56.60;;;;;;4426695;28;659411;-73
2023/11/30 11:18:46;;;;;;;12.77;6.03;;;7.80;57.70;;;;;;4444159;28;656112;-74
2023/11/30 11:21:38;;;;;;;13.03;5.70;;;8.60;59.00;;;;;;4436805;27;657736;-73
2023/11/30 11:24:26;;;;;;;14.80;6.70;;;9.90;54.60;;;;;;4440833;27;658361;-74
2023/11/30 11:27:25;;;;;;;11.17;5.80;;;10.50;54.10;;;;;;4447392;27;658881;-71
2023/11/30 11:30:14;;;;;;;12.10;5.60;;;11.80;51.20;;;;;;4422265;27;658923;-70
2023/11/30 11:33:02;;;;;;;12.10;5.23;;;10.70;47.00;;;;;;4453384;27;658873;-71
2023/11/30 11:35:49;;;;;;;12.07;5.90;;;10.70;48.40;;;;;;4434374;28;658576;-70
2023/11/30 11:38:37;;;;;;;11.03;5.03;;;11.70;47.10;;;;;;4456537;27;658851;-71
2023/11/30 11:41:24;;;;;;;14.90;6.03;;;12.00;45.60;;;;;;4436630;28;659188;-71
2023/11/30 11:44:13;;;;;;;10.87;6.00;;;11.80;47.10;;;;;;4460392;27;658701;-71
2023/11/30 11:47:01;;;;;;;11.90;6.20;;;12.50;45.30;;;;;;4436935;27;660173;-72
2023/11/30 11:49:48;;;;;;;13.97;6.73;;;12.30;44.20;;;;;;4442538;27;658444;-71
2023/11/30 11:52:35;;;;;;;11.13;6.47;;;12.70;46.20;;;;;;4465112;27;659428;-70
2023/11/30 11:55:24;;;;;;;12.23;6.47;;;13.00;42.40;;;;;;4448987;27;658754;-71
2023/11/30 11:58:12;;;;;;;13.43;6.97;;;13.10;41.70;;;;;;4449525;27;659413;-71
2023/11/30 12:00:59;;;;;;;12.17;6.43;;;12.90;42.00;;;;;;4434719;27;660117;-71
2023/11/30 12:03:49;;;;;;;12.07;6.83;;;11.90;42.20;;;;;;4450302;28;658230;-71
2023/11/30 12:06:36;;;;;;;10.67;5.70;;;11.70;43.70;;;;;;4437849;27;658760;-70
2023/11/30 12:09:23;;;;;;;13.20;5.63;;;11.40;43.50;;;;;;4430836;27;658619;-71
2023/11/30 12:12:12;;;;;;;14.00;6.03;;;10.40;45.20;;;;;;4448546;27;659753;-70
2023/11/30 12:14:59;;;;;;;14.27;6.63;;;9.80;46.90;;;;;;4436907;27;658957;-73
2023/11/30 12:17:46;;;;;;;11.67;6.10;;;9.80;51.00;;;;;;4456679;27;657484;-70
2023/11/30 12:20:34;;;;;;;13.90;6.60;;;10.80;46.60;;;;;;4437529;28;657832;-71
2023/11/30 12:23:23;;;;;;;13.23;6.43;;;10.80;44.60;;;;;;4441580;28;658627;-71
2023/11/30 12:26:10;;;;;;;12.33;6.33;;;10.80;45.20;;;;;;4437655;27;659133;-70
2023/11/30 12:28:59;;;;;;;14.23;6.33;;;10.80;45.50;;;;;;4440133;28;658856;-70
2023/11/30 12:31:46;;;;;;;15.07;5.93;;;9.80;45.80;;;;;;4458784;28;658669;-70
2023/11/30 12:34:33;;;;;;;13.75;6.43;;;8.90;49.10;;;;;;4421377;28;657273;-72
2023/11/30 12:37:20;;;;;;;12.13;6.23;;;7.60;51.50;;;;;;4456034;28;658976;-72
2023/11/30 12:40:10;;;;;;;9.55;5.93;;;7.40;54.30;;;;;;4429169;28;657455;-72
2023/11/30 12:42:57;;;;;;;12.67;6.03;;;7.40;54.60;;;;;;4439060;27;656855;-72
2023/11/30 12:45:46;;;;;;;12.17;5.87;;;6.60;58.30;;;;;;4460435;27;657947;-72
2023/11/30 12:48:33;;;;;;;11.27;5.37;;;6.10;57.50;;;;;;4433330;28;658134;-73
2023/11/30 12:51:20;;;;;;;11.67;5.67;;;6.70;57.00;;;;;;4459087;27;658024;-73
2023/11/30 12:54:08;;;;;;;9.93;5.20;;;6.50;59.70;;;;;;4440877;27;658219;-72
2023/11/30 12:56:55;;;;;;;12.77;5.67;;;6.70;65.90;;;;;;4455242;28;657181;-73
2023/11/30 12:59:43;;;;;;;10.47;5.50;;;7.20;66.50;;;;;;4446926;28;657708;-70
2023/11/30 13:02:32;;;;;;;17.57;6.10;;;6.10;60.00;;;;;;4445101;28;658267;-70
2023/11/30 13:05:19;;;;;;;9.60;5.10;;;5.90;68.30;;;;;;4438453;28;657592;-70
2023/11/30 13:08:06;;;;;;;9.80;5.30;;;5.30;97.80;;;;;;4451309;27;656263;-70
2023/11/30 13:10:53;;;;;;;11.53;5.90;;;6.00;99.90;;;;;;4430460;28;657283;-70
2023/11/30 13:13:40;;;;;;;12.53;5.90;;;6.30;95.90;;;;;;4445705;28;658233;-71
2023/11/30 13:16:28;;;;;;;13.40;6.47;;;6.60;91.20;;;;;;4434089;28;657542;-69
2023/11/30 13:19:16;;;;;;;9.97;4.90;;;7.00;82.10;;;;;;4457058;28;658338;-70
2023/11/30 13:22:04;;;;;;;10.03;5.50;;;7.10;80.90;;;;;;4430302;28;656666;-70
2023/11/30 13:24:51;;;;;;;9.57;5.17;;;6.70;93.50;;;;;;4456497;28;658524;-71
2023/11/30 13:27:38;;;;;;;10.77;5.57;;;7.00;95.70;;;;;;4442728;28;657087;-70
2023/11/30 13:30:26;;;;;;;13.73;6.60;;;8.10;75.00;;;;;;4449012;28;657899;-70
2023/11/30 13:33:13;;;;;;;15.60;7.33;;;8.50;68.30;;;;;;4442818;28;657942;-71
2023/11/30 13:36:02;;;;;;;15.60;7.67;;;8.70;62.40;;;;;;4464759;28;658120;-71
2023/11/30 13:38:49;;;;;;;26.73;11.60;;;9.20;62.60;;;;;;4437813;28;657760;-71
2023/11/30 13:41:36;;;;;;;15.90;6.60;;;9.20;59.70;;;;;;4454104;28;658694;-71
2023/11/30 13:44:24;;;;;;;23.47;11.43;;;10.00;60.80;;;;;;4423522;28;657559;-71
2023/11/30 13:47:11;;;;;;;31.40;13.63;;;7.90;58.40;;;;;;4449136;28;659801;-70
2023/11/30 13:49:58;;;;;;;20.60;9.50;;;7.20;59.20;;;;;;4449248;27;658796;-70
2023/11/30 13:52:47;;;;;;;21.93;9.70;;;6.70;60.30;;;;;;4470043;27;658029;-70
2023/11/30 13:55:34;;;;;;;15.20;6.83;;;7.50;60.60;;;;;;4444309;27;657838;-70
2023/11/30 13:58:21;;;;;;;12.73;6.37;;;6.70;58.80;;;;;;4459583;27;657621;-71
2023/11/30 14:01:09;;;;;;;12.47;6.60;;;6.80;60.40;;;;;;4432628;27;657389;-70
2023/11/30 14:03:56;;;;;;;15.90;7.50;;;7.60;66.60;;;;;;4460418;27;657974;-70
2023/11/30 14:06:43;;;;;;;23.43;10.60;;;7.20;70.80;;;;;;4442625;28;658578;-70